createdAt,value
2018-09-04T00:00:59.098Z,93.97
2018-09-04T00:01:59.329Z,93.97
2018-09-04T00:02:59.560Z,94.26
2018-09-04T00:03:59.787Z,93.87
2018-09-04T00:05:00.014Z,93.68
2018-09-04T00:06:00.248Z,93.92
2018-09-04T00:07:00.470Z,94.59
2018-09-04T00:08:00.704Z,94.12
2018-09-04T00:09:00.932Z,94.64
2018-09-04T00:10:01.162Z,94.31
2018-09-04T00:11:01.393Z,94.40
2018-09-04T00:12:01.625Z,95.17
2018-09-04T00:13:01.854Z,94.69
2018-09-04T00:14:02.083Z,95.46
2018-09-04T00:15:02.314Z,95.55
2018-09-04T00:16:02.544Z,96.13
2018-09-04T00:17:02.774Z,96.42
2018-09-04T00:18:03.003Z,96.32
2018-09-04T00:19:03.236Z,96.61
2018-09-04T00:20:03.458Z,96.51
2018-09-04T00:21:03.686Z,96.22
2018-09-04T00:22:03.914Z,96.37
2018-09-04T00:23:04.134Z,96.03
2018-09-04T00:24:04.373Z,95.98
2018-09-04T00:25:04.610Z,96.18
2018-09-04T00:26:04.832Z,95.70
2018-09-04T00:27:05.059Z,95.07
2018-09-04T00:28:05.293Z,95.60
2018-09-04T00:29:05.518Z,95.03
2018-09-04T00:30:05.746Z,94.83
2018-09-04T00:31:05.976Z,94.74
2018-09-04T00:32:06.209Z,95.12
2018-09-04T00:33:06.441Z,94.35
2018-09-04T00:34:06.664Z,94.83
2018-09-04T00:35:06.894Z,94.64
2018-09-04T00:36:07.119Z,94.45
2018-09-04T00:37:07.377Z,94.54
2018-09-04T00:38:07.591Z,94.35
2018-09-04T00:39:07.786Z,94.35
2018-09-04T00:40:08.014Z,94.35
2018-09-04T00:41:08.243Z,94.35
2018-09-04T00:42:08.477Z,93.73
2018-09-04T00:43:08.703Z,94.26
2018-09-04T00:44:08.930Z,93.87
2018-09-04T00:45:09.159Z,94.26
2018-09-04T00:46:09.388Z,94.49
2018-09-04T00:47:09.614Z,94.35
2018-09-04T00:48:09.842Z,94.35
2018-09-04T00:49:10.095Z,94.64
2018-09-04T00:50:10.299Z,94.45
2018-09-04T00:51:10.529Z,94.74
2018-09-04T00:52:10.754Z,94.16
2018-09-04T00:53:10.986Z,94.45
2018-09-04T00:54:11.214Z,94.12
2018-09-04T00:55:11.448Z,94.45
2018-09-04T00:56:11.671Z,94.49
2018-09-04T00:57:11.902Z,94.98
2018-09-04T00:58:12.129Z,95.03
2018-09-04T00:59:12.364Z,94.40
2018-09-04T01:00:12.588Z,94.12
2018-09-04T01:01:12.821Z,94.98
2018-09-04T01:02:13.050Z,94.69
2018-09-04T01:03:13.282Z,95.55
2018-09-04T01:04:13.510Z,95.84
2018-09-04T01:05:13.744Z,96.32
2018-09-04T01:06:13.969Z,96.03
2018-09-04T01:07:14.197Z,96.22
2018-09-04T01:08:14.414Z,96.32
2018-09-04T01:09:14.651Z,96.99
2018-09-04T01:10:14.869Z,96.99
2018-09-04T01:11:15.100Z,96.99
2018-09-04T01:12:15.330Z,96.32
2018-09-04T01:13:15.558Z,97.09
2018-09-04T01:14:15.836Z,96.51
2018-09-04T01:15:16.018Z,96.61
2018-09-04T01:16:16.242Z,96.99
2018-09-04T01:17:16.473Z,97.19
2018-09-04T01:18:16.697Z,97.09
2018-09-04T01:19:16.933Z,96.99
2018-09-04T01:20:17.157Z,96.22
2018-09-04T01:21:17.386Z,96.42
2018-09-04T01:22:17.615Z,96.32
2018-09-04T01:23:17.842Z,96.51
2018-09-04T01:24:18.070Z,96.42
2018-09-04T01:25:18.301Z,96.51
2018-09-04T01:26:18.528Z,96.32
2018-09-04T01:27:18.761Z,96.99
2018-09-04T01:28:18.993Z,96.99
2018-09-04T01:29:19.218Z,96.70
2018-09-04T01:30:19.447Z,96.61
2018-09-04T01:31:19.677Z,96.70
2018-09-04T01:32:19.903Z,96.42
2018-09-04T01:33:20.142Z,96.51
2018-09-04T01:34:20.359Z,96.51
2018-09-04T01:35:20.586Z,96.42
2018-09-04T01:36:20.849Z,96.32
2018-09-04T01:37:21.083Z,96.42
2018-09-04T01:38:21.317Z,96.42
2018-09-04T01:39:21.543Z,96.89
2018-09-04T01:40:21.775Z,96.61
2018-09-04T01:41:22.004Z,96.70
2018-09-04T01:42:22.234Z,96.89
2018-09-04T01:43:22.462Z,97.09
2018-09-04T01:44:22.691Z,97.19
2018-09-04T01:45:22.922Z,96.80
2018-09-04T01:46:23.148Z,97.19
2018-09-04T01:47:23.381Z,97.38
2018-09-04T01:48:23.608Z,97.56
2018-09-04T01:49:23.838Z,97.09
2018-09-04T01:50:24.071Z,97.19
2018-09-04T01:51:24.297Z,97.38
2018-09-04T01:52:24.522Z,97.19
2018-09-04T01:53:24.758Z,97.09
2018-09-04T01:54:24.991Z,96.89
2018-09-04T01:55:25.216Z,97.09
2018-09-04T01:56:25.448Z,97.47
2018-09-04T01:57:25.676Z,97.56
2018-09-04T01:58:25.906Z,97.47
2018-09-04T01:59:26.137Z,97.28
2018-09-04T02:00:26.354Z,97.95
2018-09-04T02:01:26.608Z,97.47
2018-09-04T02:02:26.856Z,97.86
2018-09-04T02:03:27.068Z,98.43
2018-09-04T02:04:27.298Z,98.24
2018-09-04T02:05:27.527Z,98.05
2018-09-04T02:06:27.753Z,98.05
2018-09-04T02:07:27.984Z,98.14
2018-09-04T02:08:28.211Z,98.33
2018-09-04T02:09:28.443Z,98.14
2018-09-04T02:10:28.676Z,98.14
2018-09-04T02:11:28.899Z,98.91
2018-09-04T02:12:29.129Z,98.72
2018-09-04T02:13:29.418Z,98.53
2018-09-04T02:14:29.590Z,98.53
2018-09-04T02:15:29.819Z,98.72
2018-09-04T02:16:30.049Z,98.91
2018-09-04T02:17:30.278Z,98.91
2018-09-04T02:18:30.506Z,98.62
2018-09-04T02:19:30.733Z,98.43
2018-09-04T02:20:30.962Z,98.72
2018-09-04T02:21:31.190Z,98.33
2018-09-04T02:22:31.421Z,98.91
2018-09-04T02:23:31.652Z,98.62
2018-09-04T02:24:31.878Z,99.77
2018-09-04T02:25:32.106Z,99.49
2018-09-04T02:26:32.334Z,99.39
2018-09-04T02:27:32.568Z,99.29
2018-09-04T02:28:32.801Z,99.49
2018-09-04T02:29:33.026Z,99.49
2018-09-04T02:30:33.255Z,99.49
2018-09-04T02:31:33.484Z,99.58
2018-09-04T02:32:33.700Z,99.49
2018-09-04T02:33:33.933Z,99.49
2018-09-04T02:34:34.164Z,99.49
2018-09-04T02:35:34.392Z,99.20
2018-09-04T02:36:34.624Z,99.29
2018-09-04T02:37:34.851Z,99.39
2018-09-04T02:38:35.078Z,99.10
2018-09-04T02:39:35.305Z,99.91
2018-09-04T02:40:35.538Z,99.99
2018-09-04T02:41:35.766Z,99.99
2018-09-04T02:42:35.994Z,99.99
2018-09-04T02:43:36.232Z,99.99
2018-09-04T02:44:36.464Z,99.99
2018-09-04T02:45:36.697Z,99.99
2018-09-04T02:46:36.926Z,99.99
2018-09-04T02:47:37.155Z,99.99
2018-09-04T02:48:37.389Z,99.99
2018-09-04T02:49:37.611Z,99.99
2018-09-04T02:50:37.837Z,99.99
2018-09-04T02:51:38.061Z,99.39
2018-09-04T02:52:38.287Z,99.44
2018-09-04T02:53:38.517Z,99.99
2018-09-04T02:54:38.744Z,99.99
2018-09-04T02:55:38.976Z,99.99
2018-09-04T02:56:39.213Z,99.58
2018-09-04T02:57:39.432Z,99.68
2018-09-04T02:58:39.659Z,99.96
2018-09-04T02:59:39.889Z,99.29
2018-09-04T03:00:40.109Z,99.20
2018-09-04T03:01:40.334Z,99.39
2018-09-04T03:02:40.565Z,99.39
2018-09-04T03:03:40.793Z,99.49
2018-09-04T03:04:41.025Z,99.29
2018-09-04T03:05:41.256Z,99.49
2018-09-04T03:06:41.486Z,99.29
2018-09-04T03:07:41.714Z,99.49
2018-09-04T03:08:41.946Z,98.72
2018-09-04T03:09:42.172Z,99.20
2018-09-04T03:10:42.403Z,98.53
2018-09-04T03:11:42.632Z,98.53
2018-09-04T03:12:42.859Z,98.62
2018-09-04T03:13:43.105Z,98.53
2018-09-04T03:14:43.322Z,98.43
2018-09-04T03:15:43.549Z,98.14
2018-09-04T03:16:43.776Z,98.33
2018-09-04T03:17:44.007Z,98.33
2018-09-04T03:18:44.238Z,98.53
2018-09-04T03:19:44.466Z,98.82
2018-09-04T03:20:44.693Z,98.05
2018-09-04T03:21:44.920Z,98.53
2018-09-04T03:22:45.148Z,98.33
2018-09-04T03:23:45.381Z,98.91
2018-09-04T03:24:45.612Z,98.72
2018-09-04T03:25:45.834Z,98.77
2018-09-04T03:26:46.065Z,98.19
2018-09-04T03:27:46.295Z,99.15
2018-09-04T03:28:46.516Z,99.39
2018-09-04T03:29:46.745Z,99.49
2018-09-04T03:30:46.973Z,98.86
2018-09-04T03:31:47.203Z,99.20
2018-09-04T03:32:47.441Z,99.99
2018-09-04T03:33:47.658Z,99.99
2018-09-04T03:34:47.880Z,99.99
2018-09-04T03:35:48.120Z,99.99
2018-09-04T03:36:48.328Z,99.99
2018-09-04T03:37:48.557Z,99.91
2018-09-04T03:38:48.777Z,99.99
2018-09-04T03:39:49.007Z,99.99
2018-09-04T03:40:49.237Z,99.77
2018-09-04T03:41:49.467Z,99.87
2018-09-04T03:42:49.699Z,99.29
2018-09-04T03:43:49.934Z,99.39
2018-09-04T03:44:50.165Z,99.29
2018-09-04T03:45:50.391Z,99.10
2018-09-04T03:46:50.616Z,99.58
2018-09-04T03:47:50.846Z,99.20
2018-09-04T03:48:51.076Z,98.43
2018-09-04T03:49:51.306Z,98.62
2018-09-04T03:50:51.540Z,98.48
2018-09-04T03:51:51.763Z,99.05
2018-09-04T03:52:51.994Z,99.24
2018-09-04T03:53:52.223Z,99.99
2018-09-04T03:54:52.448Z,99.99
2018-09-04T03:55:52.691Z,99.99
2018-09-04T03:56:52.922Z,99.99
2018-09-04T03:57:53.148Z,99.99
2018-09-04T03:58:53.386Z,99.99
2018-09-04T03:59:53.607Z,99.99
2018-09-04T04:00:53.835Z,99.99
2018-09-04T04:01:54.059Z,99.99
2018-09-04T04:02:54.292Z,99.99
2018-09-04T04:03:54.521Z,99.99
2018-09-04T04:04:54.749Z,99.99
2018-09-04T04:05:54.982Z,99.99
2018-09-04T04:06:55.203Z,99.99
2018-09-04T04:07:55.433Z,99.99
2018-09-04T04:08:55.662Z,99.99
2018-09-04T04:09:55.894Z,99.99
2018-09-04T04:10:56.122Z,99.99
2018-09-04T04:11:56.403Z,99.99
2018-09-04T04:12:56.583Z,99.99
2018-09-04T04:13:56.810Z,99.99
2018-09-04T04:14:57.040Z,99.99
2018-09-04T04:15:57.269Z,99.99
2018-09-04T04:16:57.499Z,99.99
2018-09-04T04:17:57.729Z,99.99
2018-09-04T04:18:57.960Z,99.91
2018-09-04T04:19:58.190Z,99.99
2018-09-04T04:20:58.421Z,99.99
2018-09-04T04:21:58.649Z,99.99
2018-09-04T04:22:58.880Z,99.99
2018-09-04T04:23:59.196Z,99.99
2018-09-04T04:24:59.340Z,99.99
2018-09-04T04:25:59.570Z,99.99
2018-09-04T04:26:59.798Z,99.99
2018-09-04T04:28:00.032Z,99.99
2018-09-04T04:29:00.261Z,99.99
2018-09-04T04:30:00.489Z,99.99
2018-09-04T04:31:00.715Z,99.99
2018-09-04T04:32:00.945Z,99.99
2018-09-04T04:33:01.217Z,99.99
2018-09-04T04:34:01.407Z,99.99
2018-09-04T04:35:01.637Z,99.99
2018-09-04T04:36:01.868Z,99.99
2018-09-04T04:37:02.097Z,99.99
2018-09-04T04:38:02.334Z,99.99
2018-09-04T04:39:02.559Z,99.99
2018-09-04T04:40:02.863Z,99.99
2018-09-04T04:41:03.022Z,99.99
2018-09-04T04:42:03.252Z,99.99
2018-09-04T04:43:03.488Z,99.99
2018-09-04T04:44:03.714Z,99.99
2018-09-04T04:45:03.942Z,99.99
2018-09-04T04:46:04.168Z,99.99
2018-09-04T04:47:04.406Z,99.99
2018-09-04T04:48:04.639Z,99.99
2018-09-04T04:49:04.860Z,99.99
2018-09-04T04:50:05.092Z,99.99
2018-09-04T04:51:05.322Z,99.99
2018-09-04T04:52:05.549Z,99.99
2018-09-04T04:53:05.779Z,99.99
2018-09-04T04:54:06.007Z,99.99
2018-09-04T04:55:06.232Z,99.99
2018-09-04T04:56:06.493Z,99.99
2018-09-04T04:57:06.693Z,99.99
2018-09-04T04:58:06.929Z,99.99
2018-09-04T04:59:07.154Z,99.99
2018-09-04T05:00:07.385Z,99.99
2018-09-04T05:01:07.608Z,99.99
2018-09-04T05:02:07.851Z,99.99
2018-09-04T05:03:08.082Z,99.99
2018-09-04T05:04:08.309Z,99.99
2018-09-04T05:05:08.539Z,99.99
2018-09-04T05:06:08.769Z,99.99
2018-09-04T05:07:09.001Z,99.99
2018-09-04T05:08:09.228Z,99.99
2018-09-04T05:09:09.458Z,99.99
2018-09-04T05:10:09.685Z,99.99
2018-09-04T05:11:10.008Z,99.99
2018-09-04T05:12:10.141Z,99.99
2018-09-04T05:13:10.372Z,99.99
2018-09-04T05:14:10.601Z,99.99
2018-09-04T05:15:10.833Z,99.99
2018-09-04T05:16:11.060Z,99.99
2018-09-04T05:17:11.290Z,99.99
2018-09-04T05:18:11.517Z,99.99
2018-09-04T05:19:11.745Z,99.99
2018-09-04T05:20:11.974Z,99.99
2018-09-04T05:21:12.195Z,99.99
2018-09-04T05:22:12.449Z,99.99
2018-09-04T05:23:12.678Z,99.99
2018-09-04T05:24:12.907Z,99.99
2018-09-04T05:25:13.138Z,99.99
2018-09-04T05:26:13.370Z,99.99
2018-09-04T05:27:13.600Z,99.99
2018-09-04T05:28:13.843Z,99.99
2018-09-04T05:29:14.109Z,99.99
2018-09-04T05:30:14.283Z,99.99
2018-09-04T05:31:14.513Z,99.99
2018-09-04T05:32:14.741Z,99.99
2018-09-04T05:33:14.973Z,99.99
2018-09-04T05:34:15.206Z,99.99
2018-09-04T05:35:15.430Z,99.99
2018-09-04T05:36:15.672Z,99.99
2018-09-04T05:37:15.896Z,99.99
2018-09-04T05:38:16.121Z,99.99
2018-09-04T05:39:16.354Z,99.99
2018-09-04T05:40:16.576Z,99.99
2018-09-04T05:41:16.827Z,99.99
2018-09-04T05:42:17.059Z,99.99
2018-09-04T05:43:17.290Z,99.99
2018-09-04T05:44:17.515Z,99.99
2018-09-04T05:45:17.743Z,99.99
2018-09-04T05:46:17.975Z,99.99
2018-09-04T05:47:18.204Z,99.99
2018-09-04T05:48:18.433Z,99.99
2018-09-04T05:49:18.669Z,99.99
2018-09-04T05:50:18.893Z,99.99
2018-09-04T05:51:19.124Z,99.99
2018-09-04T05:52:19.355Z,99.99
2018-09-04T05:53:19.580Z,99.99
2018-09-04T05:54:19.821Z,99.99
2018-09-04T05:55:20.135Z,99.99
2018-09-04T05:56:20.279Z,99.99
2018-09-04T05:57:20.508Z,99.99
2018-09-04T05:58:20.745Z,99.99
2018-09-04T05:59:20.968Z,99.99
2018-09-04T06:00:21.199Z,99.99
2018-09-04T06:01:21.435Z,99.99
2018-09-04T06:02:21.660Z,99.87
2018-09-04T06:03:21.890Z,99.39
2018-09-04T06:04:22.121Z,99.49
2018-09-04T06:05:22.349Z,99.10
2018-09-04T06:06:22.579Z,99.29
2018-09-04T06:07:22.807Z,99.29
2018-09-04T06:08:23.038Z,98.91
2018-09-04T06:09:23.269Z,98.91
2018-09-04T06:10:23.500Z,99.10
2018-09-04T06:11:23.730Z,99.49
2018-09-04T06:12:23.959Z,99.49
2018-09-04T06:13:24.196Z,99.34
2018-09-04T06:14:24.421Z,98.38
2018-09-04T06:15:24.656Z,98.58
2018-09-04T06:16:24.887Z,98.38
2018-09-04T06:17:25.111Z,98.67
2018-09-04T06:18:25.342Z,97.81
2018-09-04T06:19:25.574Z,97.96
2018-09-04T06:20:25.805Z,97.04
2018-09-04T06:21:26.033Z,97.28
2018-09-04T06:22:26.265Z,96.80
2018-09-04T06:23:26.492Z,96.51
2018-09-04T06:24:26.723Z,96.22
2018-09-04T06:25:26.953Z,96.42
2018-09-04T06:26:27.184Z,96.42
2018-09-04T06:27:27.415Z,96.13
2018-09-04T06:28:27.642Z,95.75
2018-09-04T06:29:27.924Z,95.36
2018-09-04T06:30:28.103Z,95.55
2018-09-04T06:31:28.336Z,95.12
2018-09-04T06:32:28.565Z,94.64
2018-09-04T06:33:28.800Z,94.45
2018-09-04T06:34:29.028Z,94.54
2018-09-04T06:35:29.283Z,94.73
2018-09-04T06:36:29.511Z,94.35
2018-09-04T06:37:29.725Z,94.26
2018-09-04T06:38:29.951Z,94.73
2018-09-04T06:39:30.184Z,93.68
2018-09-04T06:40:30.413Z,93.96
2018-09-04T06:41:30.661Z,93.87
2018-09-04T06:42:30.891Z,93.96
2018-09-04T06:43:31.123Z,94.21
2018-09-04T06:44:31.354Z,93.82
2018-09-04T06:45:31.585Z,93.82
2018-09-04T06:46:31.846Z,94.21
2018-09-04T06:47:32.048Z,94.21
2018-09-04T06:48:32.279Z,93.82
2018-09-04T06:49:32.509Z,93.53
2018-09-04T06:50:32.742Z,93.05
2018-09-04T06:51:32.972Z,92.57
2018-09-04T06:52:33.205Z,93.15
2018-09-04T06:53:33.434Z,93.44
2018-09-04T06:54:33.714Z,93.34
2018-09-04T06:55:33.887Z,93.10
2018-09-04T06:56:34.116Z,92.81
2018-09-04T06:57:34.393Z,92.81
2018-09-04T06:58:34.620Z,92.76
2018-09-04T06:59:34.854Z,92.47
2018-09-04T07:00:35.089Z,92.91
2018-09-04T07:01:35.317Z,92.19
2018-09-04T07:02:35.551Z,92.43
2018-09-04T07:03:35.784Z,92.04
2018-09-04T07:04:36.013Z,93.10
2018-09-04T07:05:36.247Z,92.13
2018-09-04T07:06:36.488Z,91.99
2018-09-04T07:07:36.733Z,91.85
2018-09-04T07:08:36.945Z,92.09
2018-09-04T07:09:37.179Z,91.90
2018-09-04T07:10:37.410Z,91.85
2018-09-04T07:11:37.650Z,91.85
2018-09-04T07:12:37.872Z,91.75
2018-09-04T07:13:38.106Z,92.23
2018-09-04T07:14:38.341Z,91.66
2018-09-04T07:15:38.569Z,92.33
2018-09-04T07:16:38.799Z,92.33
2018-09-04T07:17:39.033Z,92.04
2018-09-04T07:18:39.262Z,91.17
2018-09-04T07:19:39.493Z,91.17
2018-09-04T07:20:39.730Z,90.55
2018-09-04T07:21:39.956Z,91.71
2018-09-04T07:22:40.205Z,91.46
2018-09-04T07:23:40.430Z,91.46
2018-09-04T07:24:40.661Z,91.56
2018-09-04T07:25:40.891Z,91.46
2018-09-04T07:26:41.125Z,91.94
2018-09-04T07:27:41.354Z,91.94
2018-09-04T07:28:41.585Z,91.94
2018-09-04T07:29:41.817Z,91.46
2018-09-04T07:30:42.048Z,91.46
2018-09-04T07:31:42.277Z,91.66
2018-09-04T07:32:42.511Z,91.70
2018-09-04T07:33:42.739Z,91.22
2018-09-04T07:34:42.974Z,91.60
2018-09-04T07:35:43.204Z,91.31
2018-09-04T07:36:43.437Z,91.41
2018-09-04T07:37:43.675Z,91.56
2018-09-04T07:38:43.897Z,91.27
2018-09-04T07:39:44.128Z,90.59
2018-09-04T07:40:44.366Z,90.69
2018-09-04T07:41:44.597Z,90.69
2018-09-04T07:42:44.827Z,91.08
2018-09-04T07:43:45.059Z,90.02
2018-09-04T07:44:45.292Z,90.79
2018-09-04T07:45:45.519Z,89.92
2018-09-04T07:46:45.760Z,90.02
2018-09-04T07:47:45.998Z,90.31
2018-09-04T07:48:46.226Z,90.21
2018-09-04T07:49:46.460Z,91.13
2018-09-04T07:50:46.691Z,90.73
2018-09-04T07:51:46.912Z,90.79
2018-09-04T07:52:47.142Z,90.89
2018-09-04T07:53:47.380Z,90.69
2018-09-04T07:54:47.607Z,90.26
2018-09-04T07:55:47.836Z,90.26
2018-09-04T07:56:48.069Z,89.87
2018-09-04T07:57:48.301Z,90.06
2018-09-04T07:58:48.536Z,90.35
2018-09-04T07:59:48.768Z,90.93
2018-09-04T08:00:49.068Z,90.35
2018-09-04T08:01:49.233Z,91.03
2018-09-04T08:02:49.466Z,90.16
2018-09-04T08:03:49.696Z,90.16
2018-09-04T08:04:49.939Z,90.20
2018-09-04T08:05:50.159Z,90.20
2018-09-04T08:06:50.394Z,90.50
2018-09-04T08:07:50.621Z,91.17
2018-09-04T08:08:50.866Z,90.01
2018-09-04T08:09:51.076Z,90.40
2018-09-04T08:10:51.309Z,90.25
2018-09-04T08:11:51.542Z,90.30
2018-09-04T08:12:51.775Z,90.92
2018-09-04T08:13:52.012Z,90.83
2018-09-04T08:14:52.240Z,90.20
2018-09-04T08:15:52.468Z,90.39
2018-09-04T08:16:52.698Z,90.58
2018-09-04T08:17:52.930Z,90.39
2018-09-04T08:18:53.162Z,90.78
2018-09-04T08:19:53.395Z,90.48
2018-09-04T08:20:53.691Z,90.30
2018-09-04T08:21:53.856Z,90.92
2018-09-04T08:22:54.090Z,90.92
2018-09-04T08:23:54.323Z,90.72
2018-09-04T08:24:54.553Z,91.74
2018-09-04T08:25:54.785Z,91.16
2018-09-04T08:26:55.016Z,91.54
2018-09-04T08:27:55.254Z,91.54
2018-09-04T08:28:55.487Z,91.39
2018-09-04T08:29:55.719Z,91.68
2018-09-04T08:30:55.953Z,91.59
2018-09-04T08:31:56.188Z,91.30
2018-09-04T08:32:56.447Z,91.11
2018-09-04T08:33:56.648Z,91.59
2018-09-04T08:34:56.876Z,90.43
2018-09-04T08:35:57.110Z,90.91
2018-09-04T08:36:57.345Z,90.91
2018-09-04T08:37:57.581Z,90.86
2018-09-04T08:38:57.810Z,91.35
2018-09-04T08:39:58.067Z,91.00
2018-09-04T08:40:58.275Z,91.49
2018-09-04T08:41:58.508Z,91.33
2018-09-04T08:42:58.739Z,91.24
2018-09-04T08:43:58.972Z,91.53
2018-09-04T08:44:59.205Z,90.95
2018-09-04T08:45:59.441Z,91.28
2018-09-04T08:46:59.673Z,90.90
2018-09-04T08:47:59.906Z,90.51
2018-09-04T08:49:00.140Z,90.56
2018-09-04T08:50:00.372Z,91.19
2018-09-04T08:51:00.606Z,90.61
2018-09-04T08:52:00.842Z,91.24
2018-09-04T08:53:01.076Z,91.38
2018-09-04T08:54:01.309Z,90.90
2018-09-04T08:55:01.542Z,90.22
2018-09-04T08:56:01.773Z,90.61
2018-09-04T08:57:02.011Z,90.56
2018-09-04T08:58:02.240Z,90.75
2018-09-04T08:59:02.476Z,90.46
2018-09-04T09:00:02.711Z,90.84
2018-09-04T09:01:02.944Z,90.65
2018-09-04T09:02:03.179Z,90.07
2018-09-04T09:03:03.415Z,90.65
2018-09-04T09:04:03.633Z,90.26
2018-09-04T09:05:03.888Z,90.65
2018-09-04T09:06:04.120Z,90.61
2018-09-04T09:07:04.388Z,90.17
2018-09-04T09:08:04.590Z,90.32
2018-09-04T09:09:04.827Z,90.41
2018-09-04T09:10:05.165Z,90.32
2018-09-04T09:11:05.292Z,90.51
2018-09-04T09:12:05.526Z,90.41
2018-09-04T09:13:05.759Z,90.41
2018-09-04T09:14:05.991Z,90.99
2018-09-04T09:15:06.224Z,90.12
2018-09-04T09:16:06.484Z,90.22
2018-09-04T09:17:06.688Z,90.32
2018-09-04T09:18:06.927Z,91.19
2018-09-04T09:19:07.156Z,90.51
2018-09-04T09:20:07.388Z,90.51
2018-09-04T09:21:07.622Z,90.32
2018-09-04T09:22:07.860Z,90.32
2018-09-04T09:23:08.095Z,90.22
2018-09-04T09:24:08.324Z,90.41
2018-09-04T09:25:08.560Z,90.70
2018-09-04T09:26:08.792Z,90.51
2018-09-04T09:27:09.027Z,90.80
2018-09-04T09:28:09.268Z,90.32
2018-09-04T09:29:09.491Z,90.75
2018-09-04T09:30:09.730Z,90.84
2018-09-04T09:31:09.961Z,90.84
2018-09-04T09:32:10.190Z,89.97
2018-09-04T09:33:10.434Z,90.17
2018-09-04T09:34:10.669Z,90.07
2018-09-04T09:35:10.926Z,90.07
2018-09-04T09:36:11.140Z,90.32
2018-09-04T09:37:11.369Z,90.99
2018-09-04T09:38:11.602Z,90.46
2018-09-04T09:39:11.838Z,89.93
2018-09-04T09:40:12.076Z,91.04
2018-09-04T09:41:12.312Z,89.93
2018-09-04T09:42:12.539Z,89.83
2018-09-04T09:43:12.768Z,90.22
2018-09-04T09:44:13.004Z,90.12
2018-09-04T09:45:13.237Z,90.41
2018-09-04T09:46:13.469Z,89.97
2018-09-04T09:47:13.704Z,89.88
2018-09-04T09:48:13.941Z,90.46
2018-09-04T09:49:14.172Z,90.07
2018-09-04T09:50:14.405Z,89.97
2018-09-04T09:51:14.640Z,90.17
2018-09-04T09:52:14.873Z,90.26
2018-09-04T09:53:15.286Z,90.17
2018-09-04T09:54:15.339Z,89.78
2018-09-04T09:55:15.571Z,89.53
2018-09-04T09:56:15.819Z,89.73
2018-09-04T09:57:16.042Z,89.63
2018-09-04T09:58:16.307Z,89.53
2018-09-04T09:59:16.501Z,89.73
2018-09-04T10:00:16.763Z,88.95
2018-09-04T10:01:17.002Z,89.05
2018-09-04T10:02:17.231Z,89.09
2018-09-04T10:03:17.466Z,89.73
2018-09-04T10:04:17.700Z,88.90
2018-09-04T10:05:17.935Z,89.09
2018-09-04T10:06:18.166Z,88.95
2018-09-04T10:07:18.400Z,89.73
2018-09-04T10:08:18.699Z,89.29
2018-09-04T10:09:18.867Z,89.15
2018-09-04T10:10:19.134Z,88.95
2018-09-04T10:11:19.356Z,88.95
2018-09-04T10:12:19.570Z,88.95
2018-09-04T10:13:19.806Z,88.76
2018-09-04T10:14:20.043Z,89.25
2018-09-04T10:15:20.274Z,89.34
2018-09-04T10:16:20.508Z,88.81
2018-09-04T10:17:20.744Z,89.05
2018-09-04T10:18:20.978Z,89.25
2018-09-04T10:19:21.216Z,89.34
2018-09-04T10:20:21.449Z,88.71
2018-09-04T10:21:21.766Z,88.90
2018-09-04T10:22:21.926Z,88.81
2018-09-04T10:23:22.156Z,88.90
2018-09-04T10:24:22.399Z,89.09
2018-09-04T10:25:22.623Z,89.58
2018-09-04T10:26:22.863Z,88.90
2018-09-04T10:27:23.095Z,89.00
2018-09-04T10:28:23.337Z,88.71
2018-09-04T10:29:23.572Z,88.95
2018-09-04T10:30:23.804Z,89.29
2018-09-04T10:31:24.040Z,88.90
2018-09-04T10:32:24.275Z,88.81
2018-09-04T10:33:24.506Z,88.51
2018-09-04T10:34:24.742Z,89.00
2018-09-04T10:35:24.980Z,88.90
2018-09-04T10:36:25.284Z,88.03
2018-09-04T10:37:25.447Z,88.23
2018-09-04T10:38:25.683Z,88.32
2018-09-04T10:39:25.958Z,88.32
2018-09-04T10:40:26.160Z,88.03
2018-09-04T10:41:26.392Z,88.03
2018-09-04T10:42:26.630Z,88.27
2018-09-04T10:43:26.862Z,88.81
2018-09-04T10:44:27.139Z,88.37
2018-09-04T10:45:27.332Z,87.88
2018-09-04T10:46:27.567Z,88.75
2018-09-04T10:47:27.803Z,87.98
2018-09-04T10:48:28.037Z,88.85
2018-09-04T10:49:28.272Z,87.20
2018-09-04T10:50:28.507Z,87.30
2018-09-04T10:51:28.741Z,87.68
2018-09-04T10:52:28.973Z,87.49
2018-09-04T10:53:29.227Z,88.02
2018-09-04T10:54:29.448Z,87.54
2018-09-04T10:55:29.684Z,87.63
2018-09-04T10:56:29.924Z,87.63
2018-09-04T10:57:30.153Z,87.82
2018-09-04T10:58:30.387Z,88.02
2018-09-04T10:59:30.622Z,87.92
2018-09-04T11:00:30.858Z,88.12
2018-09-04T11:01:31.094Z,87.38
2018-09-04T11:02:31.330Z,87.38
2018-09-04T11:03:31.564Z,86.61
2018-09-04T11:04:31.801Z,86.80
2018-09-04T11:05:32.043Z,87.58
2018-09-04T11:06:32.278Z,86.80
2018-09-04T11:07:32.518Z,86.22
2018-09-04T11:08:32.752Z,85.58
2018-09-04T11:09:33.061Z,85.29
2018-09-04T11:10:33.228Z,85.29
2018-09-04T11:11:33.460Z,85.58
2018-09-04T11:12:33.695Z,86.02
2018-09-04T11:13:33.931Z,84.91
2018-09-04T11:14:34.169Z,84.19
2018-09-04T11:15:34.409Z,83.64
2018-09-04T11:16:34.646Z,83.54
2018-09-04T11:17:34.881Z,81.41
2018-09-04T11:18:35.118Z,81.51
2018-09-04T11:19:35.353Z,80.54
2018-09-04T11:20:35.586Z,81.66
2018-09-04T11:21:35.820Z,81.60
2018-09-04T11:22:36.055Z,81.80
2018-09-04T11:23:36.347Z,82.63
2018-09-04T11:24:36.529Z,82.63
2018-09-04T11:25:36.766Z,81.66
2018-09-04T11:26:36.999Z,80.11
2018-09-04T11:27:37.228Z,80.50
2018-09-04T11:28:37.469Z,75.45
2018-09-04T11:29:37.707Z,76.04
2018-09-04T11:30:37.949Z,76.91
2018-09-04T11:31:38.180Z,75.45
2018-09-04T11:32:38.416Z,74.77
2018-09-04T11:33:38.658Z,71.77
2018-09-04T11:34:38.897Z,71.19
2018-09-04T11:35:39.130Z,71.09
2018-09-04T11:36:39.367Z,70.80
2018-09-04T11:37:39.605Z,70.25
2018-09-04T11:38:39.843Z,70.54
2018-09-04T11:39:40.073Z,69.09
2018-09-04T11:40:40.462Z,68.89
2018-09-04T11:41:40.552Z,69.28
2018-09-04T11:42:40.783Z,68.41
2018-09-04T11:43:41.029Z,67.63
2018-09-04T11:44:41.259Z,68.31
2018-09-04T11:45:41.498Z,69.73
2018-09-04T11:46:41.738Z,71.86
2018-09-04T11:47:42.013Z,70.70
2018-09-04T11:48:42.250Z,71.38
2018-09-04T11:49:42.483Z,71.77
2018-09-04T11:50:42.720Z,71.09
2018-09-04T11:51:42.959Z,70.80
2018-09-04T11:52:43.190Z,70.61
2018-09-04T11:53:43.426Z,70.99
2018-09-04T11:54:43.664Z,70.41
2018-09-04T11:55:43.910Z,71.38
2018-09-04T11:56:44.146Z,71.32
2018-09-04T11:57:44.386Z,70.45
2018-09-04T11:58:44.620Z,70.21
2018-09-04T11:59:44.999Z,70.15
2018-09-04T12:00:45.094Z,70.90
2018-09-04T12:01:45.328Z,71.58
2018-09-04T12:02:45.567Z,69.64
2018-09-04T12:03:45.803Z,69.24
2018-09-04T12:04:46.040Z,69.64
2018-09-04T12:05:46.309Z,71.28
2018-09-04T12:06:46.589Z,68.28
2018-09-04T12:07:46.751Z,68.76
2018-09-04T12:08:46.985Z,68.37
2018-09-04T12:09:47.220Z,66.86
2018-09-04T12:10:47.456Z,68.21
2018-09-04T12:11:47.690Z,68.31
2018-09-04T12:12:48.020Z,67.44
2018-09-04T12:13:48.167Z,66.30
2018-09-04T12:14:48.402Z,66.02
2018-09-04T12:15:48.639Z,66.11
2018-09-04T12:16:48.879Z,66.40
2018-09-04T12:17:49.114Z,62.71
2018-09-04T12:18:49.349Z,62.42
2018-09-04T12:19:49.584Z,62.62
2018-09-04T12:20:49.910Z,61.84
2018-09-04T12:21:50.057Z,61.25
2018-09-04T12:22:50.295Z,61.74
2018-09-04T12:23:50.530Z,62.71
2018-09-04T12:24:50.844Z,61.94
2018-09-04T12:25:51.001Z,61.07
2018-09-04T12:26:51.237Z,60.80
2018-09-04T12:27:51.477Z,60.38
2018-09-04T12:28:51.711Z,61.55
2018-09-04T12:29:51.945Z,61.94
2018-09-04T12:30:52.182Z,61.84
2018-09-04T12:31:52.418Z,61.87
2018-09-04T12:32:52.652Z,61.68
2018-09-04T12:33:52.944Z,61.87
2018-09-04T12:34:53.129Z,61.77
2018-09-04T12:35:53.363Z,61.41
2018-09-04T12:36:53.596Z,60.35
2018-09-04T12:37:53.834Z,60.15
2018-09-04T12:38:54.069Z,57.23
2018-09-04T12:39:54.305Z,57.92
2018-09-04T12:40:54.543Z,52.57
2018-09-04T12:41:54.780Z,52.76
2018-09-04T12:42:55.020Z,53.91
2018-09-04T12:43:55.260Z,55.49
2018-09-04T12:44:55.513Z,56.46
2018-09-04T12:45:55.734Z,56.95
2018-09-04T12:46:55.971Z,54.13
2018-09-04T12:47:56.249Z,54.13
2018-09-04T12:48:56.470Z,54.42
2018-09-04T12:49:56.676Z,55.29
2018-09-04T12:50:56.914Z,55.98
2018-09-04T12:51:57.150Z,56.97
2018-09-04T12:52:57.390Z,56.00
2018-09-04T12:53:57.627Z,56.59
2018-09-04T12:54:57.859Z,56.39
2018-09-04T12:55:58.099Z,56.59